Time;durP1;ratioP1;P1;durP2;ratioP2;P2;SDS_P1;SDS_P2;PMS_P1;PMS_P2;Temp;Humidity;BMP_temperature;BMP_pressure;BME280_temperature;BME280_humidity;BME280_pressure;Samples;Min_cycle;Max_cycle;Signal;HPM_P1;HPM_P2
2021/07/30 00:00:13;;;;;;;12.50;4.30;;;;;;;;;;1478772;40;20523;-79
2021/07/30 00:01:16;;;;;;;13.63;4.50;;;;;;;;;;1483007;40;20412;-79
2021/07/30 00:02:19;;;;;;;8.63;4.22;;;;;;;;;;1474491;40;20474;-81
2021/07/30 00:03:21;;;;;;;7.95;4.28;;;;;;;;;;1477500;40;20411;-79
2021/07/30 00:04:22;;;;;;;11.00;4.53;;;;;;;;;;1478035;40;20417;-79
2021/07/30 00:05:24;;;;;;;10.53;4.43;;;;;;;;;;1478240;40;20421;-79
2021/07/30 00:06:26;;;;;;;8.10;4.38;;;;;;;;;;1477888;40;20598;-80
2021/07/30 00:07:28;;;;;;;6.38;4.10;;;;;;;;;;1477968;40;20417;-79
2021/07/30 00:08:29;;;;;;;9.20;4.60;;;;;;;;;;1478408;40;20383;-81
2021/07/30 00:09:31;;;;;;;8.80;4.50;;;;;;;;;;1477760;40;20575;-80
2021/07/30 00:10:32;;;;;;;9.98;5.18;;;;;;;;;;1477555;40;20904;-79
2021/07/30 00:11:34;;;;;;;10.85;4.20;;;;;;;;;;1477975;40;20426;-79
2021/07/30 00:12:35;;;;;;;9.68;3.70;;;;;;;;;;1482155;40;20416;-80
2021/07/30 00:13:38;;;;;;;6.67;4.00;;;;;;;;;;1480958;40;20474;-79
2021/07/30 00:14:39;;;;;;;9.25;4.32;;;;;;;;;;1481751;40;20737;-80
2021/07/30 00:15:41;;;;;;;11.77;4.32;;;;;;;;;;1477702;40;20692;-80
2021/07/30 00:16:43;;;;;;;7.40;3.67;;;;;;;;;;1478561;40;20430;-80
2021/07/30 00:17:44;;;;;;;10.05;4.15;;;;;;;;;;1473603;40;20423;-81
2021/07/30 00:18:46;;;;;;;12.00;4.68;;;;;;;;;;1478227;40;20410;-79
2021/07/30 00:19:47;;;;;;;9.00;4.00;;;;;;;;;;1485678;40;20436;-80
2021/07/30 00:20:49;;;;;;;11.15;5.35;;;;;;;;;;1482054;40;20799;-80
2021/07/30 00:21:51;;;;;;;7.07;3.80;;;;;;;;;;1477799;40;20877;-82
2021/07/30 00:22:52;;;;;;;7.47;4.10;;;;;;;;;;1481921;40;20423;-82
2021/07/30 00:23:54;;;;;;;7.82;3.40;;;;;;;;;;1485756;40;20913;-81
2021/07/30 00:24:55;;;;;;;13.90;4.70;;;;;;;;;;1485793;40;20918;-80
2021/07/30 00:26:01;;;;;;;7.30;3.85;;;;;;;;;;1481743;40;20508;-80
2021/07/30 00:27:03;;;;;;;12.37;4.07;;;;;;;;;;1480979;40;20464;-80
2021/07/30 00:28:05;;;;;;;8.70;3.40;;;;;;;;;;1481603;40;20656;-80
2021/07/30 00:29:06;;;;;;;12.00;3.45;;;;;;;;;;1486137;40;20411;-79
2021/07/30 00:30:10;;;;;;;11.07;3.65;;;;;;;;;;1486474;40;20407;-79
2021/07/30 00:31:11;;;;;;;8.50;4.10;;;;;;;;;;1486476;39;20450;-80
2021/07/30 00:32:13;;;;;;;7.38;3.70;;;;;;;;;;1485961;39;20438;-80
2021/07/30 00:33:15;;;;;;;9.52;4.00;;;;;;;;;;1485965;40;20541;-79
2021/07/30 00:34:16;;;;;;;9.10;3.50;;;;;;;;;;1481845;40;20487;-80
2021/07/30 00:35:18;;;;;;;8.20;3.60;;;;;;;;;;1481963;40;20865;-79
2021/07/30 00:36:19;;;;;;;10.52;4.13;;;;;;;;;;1485809;40;20464;-79
2021/07/30 00:37:21;;;;;;;13.13;4.90;;;;;;;;;;1486259;40;20467;-79
2021/07/30 00:38:23;;;;;;;6.23;3.20;;;;;;;;;;1481989;40;20791;-80
2021/07/30 00:39:24;;;;;;;6.57;3.33;;;;;;;;;;1481800;40;21138;-79
2021/07/30 00:40:26;;;;;;;10.55;5.03;;;;;;;;;;1481926;40;20796;-79
2021/07/30 00:41:27;;;;;;;15.98;3.95;;;;;;;;;;1482197;40;20431;-80
2021/07/30 00:42:31;;;;;;;11.57;3.78;;;;;;;;;;1486198;40;20451;-79
2021/07/30 00:43:34;;;;;;;9.23;3.70;;;;;;;;;;1486335;39;20500;-79
2021/07/30 00:44:35;;;;;;;16.90;4.85;;;;;;;;;;1485808;39;20407;-79
2021/07/30 00:45:39;;;;;;;10.18;3.72;;;;;;;;;;1479275;40;20523;-78
2021/07/30 00:46:40;;;;;;;10.02;3.22;;;;;;;;;;1485749;40;20455;-80
2021/07/30 00:47:43;;;;;;;10.73;3.58;;;;;;;;;;1486442;39;20422;-80
2021/07/30 00:48:45;;;;;;;10.13;4.30;;;;;;;;;;1486137;40;20944;-79
2021/07/30 00:49:46;;;;;;;8.70;3.55;;;;;;;;;;1487948;39;20445;-80
2021/07/30 00:50:48;;;;;;;8.90;3.72;;;;;;;;;;1490319;39;20460;-80
2021/07/30 00:51:51;;;;;;;9.18;3.60;;;;;;;;;;1488559;39;20459;-79
2021/07/30 00:52:52;;;;;;;8.20;3.92;;;;;;;;;;1485669;40;20507;-82
2021/07/30 00:53:55;;;;;;;10.60;3.97;;;;;;;;;;1485798;39;20535;-83
2021/07/30 00:54:57;;;;;;;8.57;3.30;;;;;;;;;;1493498;39;20475;-81
2021/07/30 00:55:58;;;;;;;13.57;4.47;;;;;;;;;;1495249;39;20461;-80
2021/07/30 00:57:01;;;;;;;10.88;4.15;;;;;;;;;;1494096;39;20401;-80
2021/07/30 00:58:03;;;;;;;11.73;3.57;;;;;;;;;;1490992;39;20561;-79
2021/07/30 00:59:06;;;;;;;5.72;2.55;;;;;;;;;;1486918;39;20454;-79
2021/07/30 01:00:08;;;;;;;8.68;3.67;;;;;;;;;;1491005;39;20436;-79
2021/07/30 01:01:10;;;;;;;11.52;4.55;;;;;;;;;;1490865;39;20402;-79
2021/07/30 01:02:12;;;;;;;9.43;4.03;;;;;;;;;;1490251;39;20407;-79
2021/07/30 01:03:15;;;;;;;6.90;3.42;;;;;;;;;;1490917;39;20420;-80
2021/07/30 01:04:17;;;;;;;10.55;3.83;;;;;;;;;;1490056;39;20413;-80
2021/07/30 01:05:18;;;;;;;8.73;3.80;;;;;;;;;;1487234;39;20410;-79
2021/07/30 01:06:20;;;;;;;12.70;4.50;;;;;;;;;;1488856;39;20570;-79
2021/07/30 01:07:22;;;;;;;6.57;3.38;;;;;;;;;;1490709;39;20436;-79
2021/07/30 01:08:23;;;;;;;7.68;3.75;;;;;;;;;;1490818;39;20518;-79
2021/07/30 01:09:25;;;;;;;7.50;4.05;;;;;;;;;;1489610;39;21097;-79
2021/07/30 01:10:27;;;;;;;11.43;3.83;;;;;;;;;;1490306;39;20393;-79
2021/07/30 01:11:28;;;;;;;13.07;4.27;;;;;;;;;;1486579;39;20615;-80
2021/07/30 01:12:30;;;;;;;10.80;4.03;;;;;;;;;;1481746;40;20530;-80
2021/07/30 01:13:32;;;;;;;6.88;3.80;;;;;;;;;;1477470;40;20807;-79
2021/07/30 01:14:34;;;;;;;8.27;3.72;;;;;;;;;;1477621;40;20430;-79
2021/07/30 01:15:36;;;;;;;8.32;3.70;;;;;;;;;;1477625;40;20877;-80
2021/07/30 01:16:39;;;;;;;9.25;3.53;;;;;;;;;;1477576;40;20501;-79
2021/07/30 01:17:41;;;;;;;7.55;3.95;;;;;;;;;;1477385;40;20653;-80
2021/07/30 01:18:42;;;;;;;8.05;3.78;;;;;;;;;;1481879;40;20453;-79
2021/07/30 01:19:44;;;;;;;14.15;4.22;;;;;;;;;;1485399;40;20479;-79
2021/07/30 01:21:01;;;;;;;8.40;3.72;;;;;;;;;;1483932;40;20422;-80
2021/07/30 01:22:24;;;;;;;11.95;3.97;;;;;;;;;;1479721;40;20454;-79
2021/07/30 01:23:26;;;;;;;9.73;3.90;;;;;;;;;;1486549;39;20406;-79
2021/07/30 01:24:29;;;;;;;10.85;4.00;;;;;;;;;;1486576;39;20441;-79
2021/07/30 01:25:30;;;;;;;9.18;4.00;;;;;;;;;;1487040;39;20473;-79
2021/07/30 01:26:32;;;;;;;9.93;4.30;;;;;;;;;;1489871;39;20948;-79
2021/07/30 01:27:33;;;;;;;11.25;4.28;;;;;;;;;;1489787;39;20522;-79
2021/07/30 01:28:35;;;;;;;8.75;4.70;;;;;;;;;;1490578;39;20794;-81
2021/07/30 01:29:36;;;;;;;12.57;5.03;;;;;;;;;;1490021;39;20424;-80
2021/07/30 01:30:38;;;;;;;8.20;4.45;;;;;;;;;;1489588;39;20458;-79
2021/07/30 01:31:40;;;;;;;13.27;4.57;;;;;;;;;;1490307;39;20783;-78
2021/07/30 01:32:42;;;;;;;10.33;3.80;;;;;;;;;;1490097;39;20544;-79
2021/07/30 01:33:43;;;;;;;10.57;4.38;;;;;;;;;;1489981;39;20441;-79
2021/07/30 01:34:46;;;;;;;9.23;3.60;;;;;;;;;;1485398;39;20871;-79
2021/07/30 01:35:48;;;;;;;8.05;3.88;;;;;;;;;;1486643;39;21118;-79
2021/07/30 01:36:49;;;;;;;10.18;4.07;;;;;;;;;;1490128;39;20405;-79
2021/07/30 01:37:51;;;;;;;11.15;4.05;;;;;;;;;;1486011;39;20463;-82
2021/07/30 01:38:52;;;;;;;11.95;4.50;;;;;;;;;;1489933;39;20838;-82
2021/07/30 01:39:54;;;;;;;7.85;4.32;;;;;;;;;;1489904;39;20389;-82
2021/07/30 01:41:08;;;;;;;11.70;4.57;;;;;;;;;;1489473;39;20817;-81
2021/07/30 01:42:10;;;;;;;9.95;4.22;;;;;;;;;;1489797;39;20389;-79
2021/07/30 01:43:12;;;;;;;10.25;4.15;;;;;;;;;;1486909;39;20484;-79
2021/07/30 01:44:14;;;;;;;11.25;4.32;;;;;;;;;;1490005;39;20469;-79
2021/07/30 01:45:16;;;;;;;15.32;4.35;;;;;;;;;;1490760;39;20459;-79
2021/07/30 01:46:17;;;;;;;15.07;4.60;;;;;;;;;;1489773;39;20789;-78
2021/07/30 01:47:20;;;;;;;11.90;4.20;;;;;;;;;;1485587;39;20399;-79
2021/07/30 01:48:21;;;;;;;7.85;3.10;;;;;;;;;;1486230;39;20510;-79
2021/07/30 01:49:23;;;;;;;10.77;4.13;;;;;;;;;;1489897;39;20460;-79
2021/07/30 01:50:24;;;;;;;9.05;3.95;;;;;;;;;;1490916;39;20457;-78
2021/07/30 01:51:26;;;;;;;10.73;3.80;;;;;;;;;;1489163;39;20480;-79
2021/07/30 01:52:28;;;;;;;7.70;3.73;;;;;;;;;;1490342;39;20409;-79
2021/07/30 01:53:31;;;;;;;7.80;3.75;;;;;;;;;;1490653;39;20739;-79
2021/07/30 01:54:32;;;;;;;7.97;3.65;;;;;;;;;;1490458;39;20432;-79
2021/07/30 01:55:34;;;;;;;12.35;4.30;;;;;;;;;;1490078;39;20432;-79
2021/07/30 01:56:35;;;;;;;11.55;4.35;;;;;;;;;;1487328;39;20406;-80
2021/07/30 01:57:37;;;;;;;10.90;4.55;;;;;;;;;;1485799;40;20399;-80
2021/07/30 01:58:39;;;;;;;12.83;4.07;;;;;;;;;;1486209;39;20765;-81
2021/07/30 01:59:40;;;;;;;13.73;4.75;;;;;;;;;;1486520;39;20451;-80
2021/07/30 02:00:42;;;;;;;10.38;3.95;;;;;;;;;;1486565;39;20422;-80
2021/07/30 02:01:44;;;;;;;14.25;3.83;;;;;;;;;;1488288;39;20406;-80
2021/07/30 02:02:47;;;;;;;12.70;3.95;;;;;;;;;;1489993;39;20441;-79
2021/07/30 02:03:49;;;;;;;8.48;4.57;;;;;;;;;;1485965;39;20406;-80
2021/07/30 02:04:50;;;;;;;12.80;4.38;;;;;;;;;;1486070;39;20399;-80
2021/07/30 02:05:52;;;;;;;14.15;4.15;;;;;;;;;;1487190;39;20901;-83
2021/07/30 02:06:54;;;;;;;10.85;3.92;;;;;;;;;;1485448;39;20399;-82
2021/07/30 02:07:56;;;;;;;9.25;4.10;;;;;;;;;;1486061;40;20681;-82
2021/07/30 02:08:57;;;;;;;13.55;4.50;;;;;;;;;;1485945;40;20419;-80
2021/07/30 02:09:59;;;;;;;8.57;3.95;;;;;;;;;;1485550;40;20419;-80
2021/07/30 02:11:07;;;;;;;11.13;3.90;;;;;;;;;;1486078;39;20400;-80
2021/07/30 02:12:09;;;;;;;10.38;3.97;;;;;;;;;;1489633;39;20394;-80
2021/07/30 02:14:32;;;;;;;11.95;5.10;;;;;;;;;;1482866;40;20412;-80
2021/07/30 02:15:37;;;;;;;10.57;4.15;;;;;;;;;;1483063;40;20437;-80
2021/07/30 02:16:39;;;;;;;10.10;4.18;;;;;;;;;;1486009;40;20407;-80
2021/07/30 02:17:40;;;;;;;8.38;4.20;;;;;;;;;;1486087;40;20476;-80
2021/07/30 02:18:42;;;;;;;11.75;4.35;;;;;;;;;;1485564;40;20447;-81
2021/07/30 02:19:43;;;;;;;14.27;4.85;;;;;;;;;;1485925;40;21038;-80
2021/07/30 02:20:45;;;;;;;8.93;4.20;;;;;;;;;;1485769;40;20501;-82
2021/07/30 02:21:51;;;;;;;12.02;4.85;;;;;;;;;;1481832;40;20463;-81
2021/07/30 02:22:53;;;;;;;10.18;3.97;;;;;;;;;;1485621;40;20498;-83
2021/07/30 02:23:54;;;;;;;8.23;4.32;;;;;;;;;;1486270;39;20480;-82
2021/07/30 02:24:56;;;;;;;10.38;4.35;;;;;;;;;;1485882;39;20422;-82
2021/07/30 02:25:57;;;;;;;7.95;4.28;;;;;;;;;;1486423;40;20434;-80
2021/07/30 02:26:59;;;;;;;11.15;4.35;;;;;;;;;;1487772;39;20472;-80
2021/07/30 02:28:01;;;;;;;12.43;4.28;;;;;;;;;;1490261;39;20753;-79
2021/07/30 02:29:03;;;;;;;10.35;4.90;;;;;;;;;;1485491;40;20422;-80
2021/07/30 02:30:05;;;;;;;8.68;4.00;;;;;;;;;;1486299;39;20828;-80
2021/07/30 02:31:07;;;;;;;10.95;4.93;;;;;;;;;;1485773;40;20870;-80
2021/07/30 02:32:09;;;;;;;9.90;4.70;;;;;;;;;;1481436;40;20418;-80
2021/07/30 02:33:10;;;;;;;10.00;4.33;;;;;;;;;;1482874;40;20517;-80
2021/07/30 02:34:12;;;;;;;14.77;5.47;;;;;;;;;;1488616;39;20859;-81
2021/07/30 02:35:16;;;;;;;8.50;4.03;;;;;;;;;;1493774;39;20581;-80
2021/07/30 02:36:18;;;;;;;11.75;4.90;;;;;;;;;;1483661;40;20505;-80
2021/07/30 02:37:19;;;;;;;9.60;4.10;;;;;;;;;;1482103;39;20443;-79
2021/07/30 02:38:21;;;;;;;7.78;4.35;;;;;;;;;;1486165;40;20429;-80
2021/07/30 02:39:23;;;;;;;12.30;4.57;;;;;;;;;;1482324;40;20578;-79
2021/07/30 02:40:24;;;;;;;13.40;4.05;;;;;;;;;;1483400;40;20433;-79
2021/07/30 02:41:26;;;;;;;12.73;4.85;;;;;;;;;;1488992;39;20435;-81
2021/07/30 02:42:27;;;;;;;12.90;4.97;;;;;;;;;;1485978;40;20487;-79
2021/07/30 02:43:30;;;;;;;9.15;4.32;;;;;;;;;;1485805;39;20415;-80
2021/07/30 02:44:31;;;;;;;16.27;5.22;;;;;;;;;;1486027;40;20489;-79
2021/07/30 02:45:33;;;;;;;8.63;4.45;;;;;;;;;;1481919;40;20502;-79
2021/07/30 02:46:34;;;;;;;11.90;4.72;;;;;;;;;;1486580;39;20455;-79
2021/07/30 02:47:36;;;;;;;11.18;4.35;;;;;;;;;;1491067;39;20397;-80
2021/07/30 02:48:37;;;;;;;11.40;4.73;;;;;;;;;;1486520;40;20419;-79
2021/07/30 02:49:39;;;;;;;11.43;5.40;;;;;;;;;;1486542;39;20796;-80
2021/07/30 02:50:40;;;;;;;10.63;4.70;;;;;;;;;;1490857;39;20506;-80
2021/07/30 02:51:42;;;;;;;12.55;5.15;;;;;;;;;;1490462;39;20420;-80
2021/07/30 02:52:43;;;;;;;10.55;4.43;;;;;;;;;;1486495;40;20453;-79
2021/07/30 02:53:45;;;;;;;9.82;4.82;;;;;;;;;;1486296;40;20482;-80
2021/07/30 02:54:47;;;;;;;13.00;5.07;;;;;;;;;;1481672;40;20785;-80
2021/07/30 02:55:48;;;;;;;11.57;5.32;;;;;;;;;;1477710;40;20446;-81
2021/07/30 02:56:50;;;;;;;11.52;5.63;;;;;;;;;;1473386;40;20478;-79
2021/07/30 02:57:51;;;;;;;8.82;4.88;;;;;;;;;;1481679;39;20494;-80
2021/07/30 02:58:53;;;;;;;11.40;5.60;;;;;;;;;;1485629;40;20422;-82
2021/07/30 02:59:54;;;;;;;10.48;4.50;;;;;;;;;;1485779;39;20518;-82
2021/07/30 03:00:56;;;;;;;11.13;4.90;;;;;;;;;;1490342;39;20424;-82
2021/07/30 03:01:58;;;;;;;9.40;4.47;;;;;;;;;;1490582;39;20412;-80
2021/07/30 03:03:00;;;;;;;13.82;5.10;;;;;;;;;;1485637;40;20387;-79
2021/07/30 03:04:01;;;;;;;10.48;5.22;;;;;;;;;;1481564;40;20408;-80
2021/07/30 03:05:04;;;;;;;10.63;4.60;;;;;;;;;;1486062;39;20407;-80
2021/07/30 03:06:05;;;;;;;11.15;4.63;;;;;;;;;;1486784;39;20489;-80
2021/07/30 03:07:07;;;;;;;10.15;5.05;;;;;;;;;;1485844;39;20434;-80
2021/07/30 03:08:08;;;;;;;10.35;4.78;;;;;;;;;;1489766;39;20804;-79
2021/07/30 03:09:10;;;;;;;11.03;4.83;;;;;;;;;;1485564;40;20528;-78
2021/07/30 03:10:11;;;;;;;10.88;5.22;;;;;;;;;;1485564;39;20403;-80
2021/07/30 03:11:13;;;;;;;12.05;4.85;;;;;;;;;;1490537;39;20412;-81
2021/07/30 03:12:14;;;;;;;11.15;5.15;;;;;;;;;;1485567;40;21031;-79
2021/07/30 03:13:16;;;;;;;12.93;5.55;;;;;;;;;;1481821;40;20491;-81
2021/07/30 03:14:18;;;;;;;10.73;4.72;;;;;;;;;;1485798;39;20497;-80
2021/07/30 03:15:19;;;;;;;10.45;5.45;;;;;;;;;;1485525;40;20405;-80
2021/07/30 03:16:21;;;;;;;11.10;4.82;;;;;;;;;;1485747;39;20499;-79
2021/07/30 03:17:22;;;;;;;10.52;4.78;;;;;;;;;;1490482;39;20408;-79
2021/07/30 03:18:27;;;;;;;10.13;5.20;;;;;;;;;;1490556;39;20623;-79
2021/07/30 03:19:29;;;;;;;12.27;5.80;;;;;;;;;;1486288;40;20452;-80
2021/07/30 03:20:30;;;;;;;14.27;5.50;;;;;;;;;;1482101;40;20452;-80
2021/07/30 03:21:32;;;;;;;10.00;4.97;;;;;;;;;;1485999;39;20932;-80
2021/07/30 03:22:34;;;;;;;12.43;5.18;;;;;;;;;;1491244;39;20405;-80
2021/07/30 03:23:36;;;;;;;10.18;4.60;;;;;;;;;;1486451;40;20410;-80
2021/07/30 03:24:38;;;;;;;13.00;5.10;;;;;;;;;;1478198;40;20512;-81
2021/07/30 03:25:39;;;;;;;10.23;4.93;;;;;;;;;;1484756;39;20526;-81
2021/07/30 03:26:41;;;;;;;10.82;5.40;;;;;;;;;;1485810;40;20411;-80
2021/07/30 03:27:43;;;;;;;11.85;5.50;;;;;;;;;;1486312;39;20425;-79
2021/07/30 03:28:48;;;;;;;8.27;4.50;;;;;;;;;;1494100;39;20421;-80
2021/07/30 03:29:50;;;;;;;9.88;4.72;;;;;;;;;;1498758;39;20796;-79
2021/07/30 03:30:51;;;;;;;13.10;5.28;;;;;;;;;;1498375;39;20432;-80
2021/07/30 03:31:53;;;;;;;11.65;5.20;;;;;;;;;;1491328;39;20393;-82
2021/07/30 03:32:54;;;;;;;11.63;5.55;;;;;;;;;;1487193;39;20391;-81
2021/07/30 03:33:56;;;;;;;10.27;5.23;;;;;;;;;;1486958;39;20483;-82
2021/07/30 03:34:58;;;;;;;11.73;5.18;;;;;;;;;;1486944;39;20418;-80
2021/07/30 03:35:59;;;;;;;14.82;5.00;;;;;;;;;;1490880;39;20389;-79
2021/07/30 03:37:01;;;;;;;16.08;5.68;;;;;;;;;;1485864;39;20418;-80
2021/07/30 03:38:03;;;;;;;11.70;5.38;;;;;;;;;;1486612;39;20457;-81
2021/07/30 03:39:04;;;;;;;13.30;5.80;;;;;;;;;;1490810;39;20445;-78
2021/07/30 03:40:07;;;;;;;12.57;5.43;;;;;;;;;;1490835;39;20467;-79
2021/07/30 03:41:08;;;;;;;10.95;5.60;;;;;;;;;;1486437;40;20515;-80
2021/07/30 03:42:10;;;;;;;13.75;5.60;;;;;;;;;;1482386;40;20477;-79
2021/07/30 03:43:12;;;;;;;10.40;5.75;;;;;;;;;;1482277;40;20470;-80
2021/07/30 03:44:14;;;;;;;15.45;6.18;;;;;;;;;;1486304;39;20426;-79
2021/07/30 03:45:15;;;;;;;10.15;5.00;;;;;;;;;;1486320;40;20402;-80
2021/07/30 03:46:17;;;;;;;14.90;7.22;;;;;;;;;;1486585;39;20493;-79
2021/07/30 03:47:18;;;;;;;11.00;5.65;;;;;;;;;;1482018;40;20400;-80
2021/07/30 03:48:20;;;;;;;11.85;5.15;;;;;;;;;;1482980;39;20419;-80
2021/07/30 03:49:22;;;;;;;12.32;5.57;;;;;;;;;;1486095;40;20497;-80
2021/07/30 03:50:23;;;;;;;11.00;5.10;;;;;;;;;;1480903;40;20751;-79
2021/07/30 03:51:25;;;;;;;13.27;6.03;;;;;;;;;;1486113;39;20418;-80
2021/07/30 03:52:26;;;;;;;15.43;5.82;;;;;;;;;;1486476;40;20533;-80
2021/07/30 03:53:28;;;;;;;13.68;6.85;;;;;;;;;;1486305;39;20934;-80
2021/07/30 03:54:30;;;;;;;17.27;6.35;;;;;;;;;;1485866;40;20814;-80
2021/07/30 03:55:31;;;;;;;13.68;5.40;;;;;;;;;;1482524;39;20530;-79
2021/07/30 03:56:33;;;;;;;14.80;6.32;;;;;;;;;;1485916;39;20471;-79
2021/07/30 03:57:35;;;;;;;15.85;6.47;;;;;;;;;;1486445;40;20493;-79
2021/07/30 03:58:36;;;;;;;11.32;5.88;;;;;;;;;;1481988;40;20520;-79
2021/07/30 03:59:38;;;;;;;13.57;6.97;;;;;;;;;;1486210;39;20426;-79
2021/07/30 04:00:39;;;;;;;12.55;5.82;;;;;;;;;;1486158;40;20508;-79
2021/07/30 04:01:47;;;;;;;13.23;6.00;;;;;;;;;;1481988;40;20405;-79
2021/07/30 04:02:49;;;;;;;14.88;6.00;;;;;;;;;;1486691;39;20387;-80
2021/07/30 04:03:51;;;;;;;10.13;4.95;;;;;;;;;;1490605;39;20461;-80
2021/07/30 04:04:52;;;;;;;11.50;5.60;;;;;;;;;;1490968;39;20903;-81
2021/07/30 04:05:54;;;;;;;13.27;5.47;;;;;;;;;;1490767;39;20768;-82
2021/07/30 04:06:55;;;;;;;9.27;5.75;;;;;;;;;;1485861;40;21126;-83
2021/07/30 04:07:57;;;;;;;15.45;6.72;;;;;;;;;;1482123;40;20405;-82
2021/07/30 04:08:59;;;;;;;10.88;5.00;;;;;;;;;;1485768;39;20855;-79
2021/07/30 04:10:00;;;;;;;13.80;5.25;;;;;;;;;;1493227;39;20416;-79
2021/07/30 04:11:03;;;;;;;12.15;5.55;;;;;;;;;;1494856;39;20404;-79
2021/07/30 04:12:05;;;;;;;15.40;5.63;;;;;;;;;;1495056;39;20404;-79
2021/07/30 04:13:06;;;;;;;11.13;4.97;;;;;;;;;;1490497;39;20409;-80
2021/07/30 04:14:09;;;;;;;8.60;5.18;;;;;;;;;;1485847;39;20394;-80
2021/07/30 04:15:11;;;;;;;14.80;5.75;;;;;;;;;;1490122;39;20522;-79
2021/07/30 04:16:13;;;;;;;12.32;5.55;;;;;;;;;;1490340;39;20417;-81
2021/07/30 04:17:14;;;;;;;9.98;5.28;;;;;;;;;;1486361;39;20415;-79
2021/07/30 04:18:16;;;;;;;13.50;5.43;;;;;;;;;;1485500;39;20964;-78
2021/07/30 04:19:18;;;;;;;11.68;4.93;;;;;;;;;;1490312;39;20417;-79
2021/07/30 04:20:19;;;;;;;12.75;5.78;;;;;;;;;;1490069;39;20468;-80
2021/07/30 04:21:21;;;;;;;13.52;6.20;;;;;;;;;;1490306;39;20401;-79
2021/07/30 04:22:22;;;;;;;9.40;5.13;;;;;;;;;;1495263;39;20456;-79
2021/07/30 04:23:24;;;;;;;8.27;4.75;;;;;;;;;;1494827;39;20396;-80
2021/07/30 04:24:25;;;;;;;10.10;5.10;;;;;;;;;;1490159;39;21059;-79
2021/07/30 04:25:27;;;;;;;9.77;4.93;;;;;;;;;;1489634;39;20518;-79
2021/07/30 04:26:29;;;;;;;10.95;5.68;;;;;;;;;;1490310;39;20729;-80
2021/07/30 04:27:30;;;;;;;16.65;5.72;;;;;;;;;;1480915;40;20545;-79
2021/07/30 04:28:32;;;;;;;16.02;5.85;;;;;;;;;;1481853;39;20404;-80
2021/07/30 04:29:38;;;;;;;8.23;5.07;;;;;;;;;;1485918;39;20436;-80
2021/07/30 04:30:40;;;;;;;8.60;5.15;;;;;;;;;;1482351;40;20420;-79
2021/07/30 04:31:41;;;;;;;13.00;5.20;;;;;;;;;;1485739;39;20418;-79
2021/07/30 04:32:43;;;;;;;11.38;5.38;;;;;;;;;;1485751;40;20512;-79
2021/07/30 04:33:45;;;;;;;12.00;5.47;;;;;;;;;;1486145;39;20690;-81
2021/07/30 04:34:46;;;;;;;12.45;5.07;;;;;;;;;;1485991;40;20825;-79
2021/07/30 04:35:48;;;;;;;12.00;5.15;;;;;;;;;;1485905;39;20407;-79
2021/07/30 04:36:49;;;;;;;11.05;5.07;;;;;;;;;;1490787;39;20431;-81
2021/07/30 04:37:54;;;;;;;11.82;5.60;;;;;;;;;;1490473;39;20500;-80
2021/07/30 04:38:55;;;;;;;10.75;4.78;;;;;;;;;;1485821;40;20807;-81
2021/07/30 04:39:57;;;;;;;12.88;5.70;;;;;;;;;;1482039;40;20448;-82
2021/07/30 04:40:59;;;;;;;10.33;4.97;;;;;;;;;;1482060;40;20423;-80
2021/07/30 04:42:00;;;;;;;13.20;6.40;;;;;;;;;;1481556;40;20419;-79
2021/07/30 04:43:02;;;;;;;17.40;6.57;;;;;;;;;;1481541;40;20417;-80
2021/07/30 04:44:04;;;;;;;9.95;5.18;;;;;;;;;;1485996;39;20426;-80
2021/07/30 04:45:06;;;;;;;11.23;4.78;;;;;;;;;;1482034;40;20474;-80
2021/07/30 04:46:18;;;;;;;10.93;5.18;;;;;;;;;;1486139;39;20399;-80
2021/07/30 04:47:20;;;;;;;12.70;4.95;;;;;;;;;;1494855;39;20384;-80
2021/07/30 04:48:21;;;;;;;10.02;5.40;;;;;;;;;;1489890;39;20449;-79
2021/07/30 04:49:23;;;;;;;13.93;5.75;;;;;;;;;;1485916;39;20535;-79
2021/07/30 04:50:34;;;;;;;11.93;5.60;;;;;;;;;;1482566;40;20404;-79
2021/07/30 04:51:36;;;;;;;15.70;5.43;;;;;;;;;;1483224;39;20420;-79
2021/07/30 04:52:38;;;;;;;8.77;4.60;;;;;;;;;;1490384;39;20433;-79
2021/07/30 04:53:39;;;;;;;8.13;4.28;;;;;;;;;;1494643;39;20399;-79
2021/07/30 04:54:41;;;;;;;10.90;5.72;;;;;;;;;;1494914;39;20710;-79
2021/07/30 04:55:42;;;;;;;10.00;4.45;;;;;;;;;;1484179;40;20495;-79
2021/07/30 04:56:44;;;;;;;13.88;5.13;;;;;;;;;;1481742;39;20507;-79
2021/07/30 04:57:53;;;;;;;9.60;4.97;;;;;;;;;;1485696;39;20439;-79
2021/07/30 04:58:55;;;;;;;11.68;5.60;;;;;;;;;;1486493;39;20902;-81
2021/07/30 04:59:56;;;;;;;12.05;4.95;;;;;;;;;;1490952;39;20424;-82
2021/07/30 05:01:03;;;;;;;15.43;6.00;;;;;;;;;;1490711;39;20429;-82
2021/07/30 05:02:09;;;;;;;17.98;7.10;;;;;;;;;;1490435;39;20401;-80
2021/07/30 05:03:11;;;;;;;12.77;6.50;;;;;;;;;;1490592;39;20389;-79
2021/07/30 05:04:12;;;;;;;13.23;5.70;;;;;;;;;;1490546;39;20408;-79
2021/07/30 05:05:14;;;;;;;13.60;5.70;;;;;;;;;;1490635;39;20421;-81
2021/07/30 05:06:21;;;;;;;10.07;5.25;;;;;;;;;;1490649;39;20393;-79
2021/07/30 05:07:23;;;;;;;9.60;4.95;;;;;;;;;;1486175;40;20415;-79
2021/07/30 05:08:24;;;;;;;11.00;4.95;;;;;;;;;;1486342;39;20774;-80
2021/07/30 05:09:26;;;;;;;11.65;5.45;;;;;;;;;;1490312;39;20835;-79
2021/07/30 05:10:27;;;;;;;11.18;5.28;;;;;;;;;;1481848;40;20409;-79
2021/07/30 05:11:29;;;;;;;13.82;5.38;;;;;;;;;;1481814;40;20420;-80
2021/07/30 05:12:31;;;;;;;9.90;5.63;;;;;;;;;;1481587;40;20795;-80
2021/07/30 05:13:34;;;;;;;12.38;5.15;;;;;;;;;;1477810;40;20409;-79
2021/07/30 05:14:35;;;;;;;9.60;5.55;;;;;;;;;;1481906;39;20433;-80
2021/07/30 05:15:37;;;;;;;15.05;5.47;;;;;;;;;;1490697;39;20887;-79
2021/07/30 05:16:40;;;;;;;13.48;5.35;;;;;;;;;;1495317;39;20404;-80
2021/07/30 05:17:41;;;;;;;10.65;4.97;;;;;;;;;;1495926;39;20414;-78
2021/07/30 05:18:43;;;;;;;8.60;4.68;;;;;;;;;;1491596;39;20778;-79
2021/07/30 05:19:45;;;;;;;10.07;5.03;;;;;;;;;;1492528;39;20417;-81
2021/07/30 05:20:46;;;;;;;9.82;5.57;;;;;;;;;;1496894;39;20402;-80
2021/07/30 05:21:48;;;;;;;10.95;5.20;;;;;;;;;;1487833;40;20418;-80
2021/07/30 05:22:49;;;;;;;9.60;4.97;;;;;;;;;;1484578;39;20400;-80
2021/07/30 05:23:51;;;;;;;11.88;5.78;;;;;;;;;;1488092;39;20415;-78
2021/07/30 05:24:52;;;;;;;11.90;5.25;;;;;;;;;;1492501;39;20481;-80
2021/07/30 05:25:55;;;;;;;10.75;4.70;;;;;;;;;;1497608;39;20488;-81
2021/07/30 05:26:56;;;;;;;13.55;5.63;;;;;;;;;;1489385;40;20421;-82
2021/07/30 05:27:58;;;;;;;13.27;5.60;;;;;;;;;;1486576;39;20408;-82
2021/07/30 05:28:59;;;;;;;13.88;6.40;;;;;;;;;;1486560;40;20405;-80
2021/07/30 05:30:01;;;;;;;10.82;5.50;;;;;;;;;;1486619;39;20448;-79
2021/07/30 05:31:03;;;;;;;9.38;5.15;;;;;;;;;;1485384;40;20543;-79
2021/07/30 05:32:07;;;;;;;15.40;6.60;;;;;;;;;;1487105;39;20887;-79
2021/07/30 05:33:08;;;;;;;9.82;5.38;;;;;;;;;;1495700;39;20400;-79
2021/07/30 05:34:10;;;;;;;13.63;6.22;;;;;;;;;;1490484;39;20802;-80
2021/07/30 05:35:12;;;;;;;10.98;5.38;;;;;;;;;;1486844;39;20480;-79
2021/07/30 05:36:14;;;;;;;12.93;5.80;;;;;;;;;;1486872;39;20406;-79
2021/07/30 05:37:15;;;;;;;12.13;5.82;;;;;;;;;;1490989;39;20494;-79
2021/07/30 05:38:17;;;;;;;7.88;5.13;;;;;;;;;;1495429;39;20419;-80
2021/07/30 05:39:21;;;;;;;11.57;6.03;;;;;;;;;;1490716;39;20509;-80
2021/07/30 05:40:22;;;;;;;11.48;5.78;;;;;;;;;;1487051;39;20776;-80
2021/07/30 05:41:24;;;;;;;10.63;5.72;;;;;;;;;;1482482;40;20502;-79
2021/07/30 05:42:25;;;;;;;12.00;5.95;;;;;;;;;;1481924;39;20479;-80
2021/07/30 05:43:27;;;;;;;11.07;5.07;;;;;;;;;;1486318;39;20423;-79
2021/07/30 05:44:28;;;;;;;13.75;5.53;;;;;;;;;;1486104;40;20415;-80
2021/07/30 05:45:30;;;;;;;11.40;5.27;;;;;;;;;;1482034;39;20657;-82
2021/07/30 05:46:32;;;;;;;11.57;5.70;;;;;;;;;;1489192;39;20498;-79
2021/07/30 05:47:33;;;;;;;9.85;5.55;;;;;;;;;;1490537;39;20405;-80
2021/07/30 05:48:35;;;;;;;13.50;6.05;;;;;;;;;;1490308;39;20513;-79
2021/07/30 05:49:36;;;;;;;9.80;5.57;;;;;;;;;;1490762;39;20405;-79
2021/07/30 05:50:38;;;;;;;11.30;5.28;;;;;;;;;;1485994;40;20395;-79
2021/07/30 05:51:40;;;;;;;11.33;6.07;;;;;;;;;;1483304;39;20460;-80
2021/07/30 05:52:41;;;;;;;12.80;6.05;;;;;;;;;;1490007;39;20405;-80
2021/07/30 05:53:43;;;;;;;13.45;5.55;;;;;;;;;;1489973;39;21006;-80
2021/07/30 05:54:45;;;;;;;13.80;6.15;;;;;;;;;;1486014;39;20494;-79
2021/07/30 05:55:46;;;;;;;13.57;5.20;;;;;;;;;;1490273;39;20409;-79
2021/07/30 05:56:48;;;;;;;11.52;5.63;;;;;;;;;;1494255;39;20674;-81
2021/07/30 05:57:50;;;;;;;12.52;6.40;;;;;;;;;;1485876;40;20418;-79
2021/07/30 05:58:51;;;;;;;13.77;6.15;;;;;;;;;;1482821;40;20511;-80
2021/07/30 05:59:53;;;;;;;14.50;6.65;;;;;;;;;;1481058;40;20449;-80
2021/07/30 06:00:54;;;;;;;13.57;5.88;;;;;;;;;;1481131;40;20925;-82
2021/07/30 06:01:56;;;;;;;14.43;6.20;;;;;;;;;;1485354;39;20507;-83
2021/07/30 06:02:59;;;;;;;11.35;5.90;;;;;;;;;;1494910;39;20405;-84
2021/07/30 06:04:01;;;;;;;9.77;5.25;;;;;;;;;;1491190;40;20391;-81
2021/07/30 06:05:03;;;;;;;11.55;5.57;;;;;;;;;;1483604;40;20399;-80
2021/07/30 06:06:05;;;;;;;9.85;5.00;;;;;;;;;;1486992;39;20410;-79
2021/07/30 06:07:06;;;;;;;12.98;4.72;;;;;;;;;;1493148;39;20515;-79
2021/07/30 06:08:08;;;;;;;11.35;5.30;;;;;;;;;;1491006;39;20871;-79
2021/07/30 06:09:09;;;;;;;12.20;5.22;;;;;;;;;;1482243;40;20813;-81